KZ-0076 weather

Blagoveshchenskoye-Chu Airport
Aksu, Jambyl Region, Kazakhstan

Public forecast

Using degrees Celsius for public forecast. Weather courtesy of forecast.io.

METAR (pilot weather report)

Closest report is Manas International Airport, 22.6 nm (41.9 km) ESE. Retrieved 2019/03/22 13:30 UTC (19 minutes ago):

UCFM 221330Z 02002MPS 320V070 CAVOK 15/00 Q1016 R26/09//95 NOSIG

TAF (pilot weather forecast)

Closest forecast is Manas International Airport, 22.6 nm (41.9 km) ESE. Retrieved 2019/03/22 12:00 UTC (2 hours ago):

TAF UCFM 221044Z 2212/2312 12003G08MPS 3000 BR SCT040CB TEMPO 2212/2218 1500 BR FU FEW005 TEMPO 2218/2224 1500 BR FU FEW005 BECMG 2305/2306 32003G08MPS 6000 NSW